Hakodate Airport

Airport
ICAO code: 
RJCH
IATA Code: 
HKD
Summary
ICAO Region: 
APAC
Territory: 
Location: 
Hakodate, Hokkaidō
Serving: 
Hakodate
Elevation: 
112 ft
Coordinates: 
Aerial View: 
41° 46' 12.263" N, 140° 49' 19.648" E
Metar
Observation
RJCH 091100Z 03005KT 9999 FEW030 SCT050 02/00 Q1030
Station
Hakodate Airport
Date/Time
2021-12-09 11:00:00
Wind direction
30°
Wind speed
05 kts
Lowest cloud amount
few clouds
Temperature
2°C
Dew point
0°C
Humidity
86%
QNH
1030 hPa
Weather condition
n/a

Hakodate Airport, is an airport located 7.6 km east of Hakodate, a city in Hokkaidō, Japan.

Climatology

Humid continental climate (Köppen climate classification Dfa).

Runways

Designator Length Width Surface Rops
12/30 3000 46 ASP Yes/Yes
Airport map: 
Aerial View: 

Accidents and Serious Incidents at or in the vicinity of RJCH

SKYbrary Partners:

Safety knowledge contributed by: